Nearby METAR Reports

 

MELB - Melbourne, Victoria, AU
Distance from station: W 100km
Updated: 08/11/2009 07:00
NOT Current
Mostly cloudy
Mostly cloudy
 Wind from W
Wind: W 17 km/h
Temperature: 27°C
Heat Index: 30°C
Dew Point: 23°C
Humidity: 79%
Barometer: 1008.1 hPa
Clouds: Mostly cloudy
Visibility: 10 km
Cloud details: Partly cloudy 1067 m
Mostly cloudy 7315 m
2009/11/07 20:00 MELB 072000Z 27009KT 9999 SCT035 BKN240 27/23 A2977 RN DST S
YMML - Melbourne Airport, Victoria, AU
Distance from station: W 100km
Updated: 19/01/2019 00:00
Mostly cloudy
Mostly cloudy
 Wind from SSW
Wind: SSW 9 km/h
Temperature: 17°C
Dew Point: 12°C
Humidity: 73%
Barometer: 1017 hPa
Clouds: Mostly cloudy
Visibility: 10 km
Cloud details: Mostly cloudy 1006 m
2019/01/18 13:00 YMML 181300Z 21005KT 9999 BKN033 17/12 Q1017
 
KPAO - Palo Alto, California, USA
Distance from station: NNW 23km
Updated: 18/01/2019 15:47
NOT Current
Mostly cloudy
Mostly cloudy
 Wind from calm
Wind: Calm
Temperature: 13°C
Dew Point: 10°C
Humidity: 82%
Barometer: 1023 hPa
Clouds: Mostly cloudy
Visibility: 16 km
Cloud details: Mostly cloudy 2134 m
2019/01/18 04:47 KPAO 180447Z 00000KT 10SM BKN070 13/10 A3021
KRHV - San Jose/Reid, California, USA
Distance from station: ENE 19km
Updated: 17/01/2019 10:50
NOT Current
Overcast
Overcast
 Wind from SE
Wind: SE 33 km/h
Temperature: 15°C
Dew Point: 12°C
Humidity: 82%
Barometer: 1010.2 hPa
Clouds: Overcast
Visibility: 3 km
Cloud details: Few Clouds 610 m
Mostly cloudy 1219 m
Overcast 2438 m
2019/01/16 23:50 KRHV 162350Z 13018KT 2SM FEW020 BKN040 OVC080 15/12 A2983 RA
 
KOAK - Oakland, California, USA
Distance from station: NNW 50km
Updated: 18/01/2019 23:53
Overcast
Overcast
 Wind from ESE
Wind: ESE 7 km/h
Temperature: 11°C
Dew Point: 9°C
Humidity: 88%
Barometer: 1025.7 hPa
Clouds: Overcast
Visibility: 16 km
Cloud details: Few Clouds 366 m
Mostly cloudy 2286 m
Overcast 3353 m
2019/01/18 12:53 KOAK 181253Z 11004KT 10SM FEW012 BKN075 OVC110 11/09 A3029 RMK AO2 SLP256 T01110094
KSQL - San Carlos Airpo, California, USA
Distance from station: NW 34km
Updated: 19/01/2019 00:00
Mostly cloudy
Mostly cloudy
 Wind from calm
Wind: Calm
Temperature: 10°C
Dew Point: 9°C
Humidity: 94%
Barometer: 1025.4 hPa
Clouds: Mostly cloudy
Visibility: 14 km
Cloud details: Mostly cloudy 3353 m
2019/01/18 13:00 KSQL 181300Z AUTO 00000KT 9SM BKN110 10/09 A3028 RMK AO2
 
KSFO - San Francisco, California, USA
Distance from station: NW 49km
Updated: 18/01/2019 23:56
Mostly cloudy
Mostly cloudy
 Wind from SE
Wind: SE 7 km/h
Temperature: 13°C
Dew Point: 8°C
Humidity: 72%
Barometer: 1025.1 hPa
Clouds: Mostly cloudy
Visibility: 16 km
Cloud details: Partly cloudy 2438 m
Mostly cloudy 3658 m
2019/01/18 12:56 KSFO 181256Z 14004KT 10SM SCT080 BKN120 13/08 A3027 RMK AO2 SLP249 T01330083
KE16 - San Martin, California, USA
Distance from station: ESE 43km
Updated: 18/01/2019 23:50
Mist, Overcast
Mist, Overcast
 Wind from N
Wind: N 6 km/h
Temperature: 10°C
Dew Point: 10°C
Humidity: 100%
Barometer: 1026.1 hPa
Summary: Mist
Clouds: Overcast
Visibility: 10 km
Cloud details: Overcast 122 m
2019/01/18 12:50 KE16 181250Z AUTO 35003KT 6SM BR OVC004 10/10 A3030 RMK AO2 PWINO PNO
 
KWVI - Watsonville, California, USA
Distance from station: SSE 44km
Updated: 18/01/2019 23:53
Overcast
Overcast
 Wind from NW
Wind: NW 6 km/h
Temperature: 10°C
Dew Point: 10°C
Humidity: 100%
Barometer: 1025.4 hPa
Clouds: Overcast
Visibility: 16 km
Cloud details: Overcast 3048 m
2019/01/18 12:53 KWVI 181253Z AUTO 32003KT 10SM OVC100 10/10 A3028 RMK AO2 SLP255 T01000100
KHAF - Half Moon Bay, California, USA
Distance from station: WNW 50km
Updated: 19/01/2019 00:00
Mist, Mostly cloudy
Mist, Mostly cloudy
 Wind from calm
Wind: Calm
Temperature: 10°C
Dew Point: 9°C
Humidity: 94%
Barometer: 1025.1 hPa
Summary: Mist
Clouds: Mostly cloudy
Visibility: 8 km
Cloud details: Few Clouds 671 m
Partly cloudy 1829 m
Mostly cloudy 2438 m
2019/01/18 13:00 KHAF 181300Z AUTO 00000KT 5SM BR FEW022 SCT060 BKN080 10/09 A3027 RMK AO2
 
KHWD - Hayward, California, USA
Distance from station: N 44km
Updated: 18/01/2019 23:54
Overcast
Overcast
 Wind from calm
Wind: Calm
Temperature: 12°C
Dew Point: 9°C
Humidity: 82%
Barometer: 1025.4 hPa
Clouds: Overcast
Visibility: 16 km
Cloud details: Few Clouds 2286 m
Overcast 3353 m
2019/01/18 12:54 KHWD 181254Z AUTO 00000KT 10SM FEW075 OVC110 12/09 A3028 RMK AO2 SLP263 T01170089
KLVK - Livermore, California, USA
Distance from station: NNE 51km
Updated: 18/01/2019 23:53
Overcast
Overcast
 Wind from calm
Wind: Calm
Temperature: 10°C
Dew Point: 8°C
Humidity: 88%
Barometer: 1025.4 hPa
Clouds: Overcast
Visibility: 13 km
Cloud details: Mostly cloudy 2438 m
Overcast 3048 m
2019/01/18 12:53 KLVK 181253Z AUTO 00000KT 8SM BKN080 OVC100 10/08 A3028 RMK AO2 SLP254 T01000083